PWSweather.com
Personal Weather Stations
Station Observations

BlenheimNZ 7201

Lat: -41.5122524, Lon: 173.9699142

Elevation: 25

Station Type: WH1081

http://www.tokaanuskihire.co.nz/blenheimweather/BlenheimWeather.html

High Low Average
Temperature 62.5°F16.9°C 54.7°F12.6°C 59.6°F15.3°C
Dew Point 62.0°F16.7°C 54.4°F12.4°C 59.0°F15.0°C
Winds 7.6 mph 12.2 kmh Calm Calm 2.0 mph S3.2 kmh S
Wind Gusts 11.4 mph18.3 kmh 0.7 mph1.1 kmh 4.0 mph6.4 kmh
Humidity 99% 91% 98%
Pressure 29.94 in1013.9 mb 29.76 in1007.8 mb -
Precipitation 1.51 in38.4 mm - -
Hour Temp Dew Point Humidity Winds Wind Gusts Pressure Precip Precip Rate Daily Precip Total
12:00 AM 60.7°F15.9°C 60.5°F15.8°C 99% 1.7 mph W2.7 kmh W 4.5 mph7.2 kmh 29.79 in1008.8 mb 0.04 in1.0 mm 0.00 in/hr0.0 mm/hr 0.05 in1.3 mm
12:30 AM 60.7°F15.9°C 60.5°F15.8°C 99% 1.8 mph WSW2.9 kmh WSW 3.8 mph6.1 kmh 29.78 in1008.5 mb 0.06 in1.5 mm 0.12 in/hr3.0 mm/hr 0.11 in2.8 mm
01:00 AM 60.8°F16.0°C 60.5°F15.8°C 99% 2.2 mph SW3.5 kmh SW 3.1 mph5.0 kmh 29.77 in1008.1 mb 0.06 in1.5 mm 0.12 in/hr3.0 mm/hr 0.17 in4.3 mm
01:30 AM 60.8°F16.0°C 60.5°F15.8°C 99% 3.5 mph W5.6 kmh W 6.0 mph9.7 kmh 29.77 in1008.1 mb 0.08 in2.0 mm 0.16 in/hr4.1 mm/hr 0.25 in6.4 mm
02:00 AM 60.8°F16.0°C 60.5°F15.8°C 99% 2.0 mph WSW3.2 kmh WSW 3.1 mph5.0 kmh 29.76 in1007.8 mb 0.09 in2.3 mm 0.18 in/hr4.6 mm/hr 0.33 in8.4 mm
02:30 AM 60.8°F16.0°C 60.5°F15.8°C 99% 0.7 mph WSW1.1 kmh WSW 2.2 mph3.5 kmh 29.76 in1007.8 mb 0.08 in2.0 mm 0.16 in/hr4.1 mm/hr 0.40 in10.2 mm
03:00 AM 60.8°F16.0°C 60.5°F15.8°C 99% Calm Calm 0.7 mph1.1 kmh 29.76 in1007.8 mb 0.04 in1.0 mm 0.08 in/hr2.0 mm/hr 0.44 in11.2 mm
03:30 AM 60.8°F16.0°C 60.5°F15.8°C 99% Calm Calm 0.7 mph1.1 kmh 29.77 in1008.1 mb 0.06 in1.5 mm 0.12 in/hr3.0 mm/hr 0.50 in12.7 mm
04:00 AM 61.0°F16.1°C 60.7°F15.9°C 99% 0.7 mph NE1.1 kmh NE 1.6 mph2.6 kmh 29.77 in1008.1 mb 0.07 in1.8 mm 0.14 in/hr3.6 mm/hr 0.57 in14.5 mm
04:30 AM 61.0°F16.1°C 60.7°F15.9°C 99% Calm Calm 0.7 mph1.1 kmh 29.78 in1008.5 mb 0.06 in1.5 mm 0.12 in/hr3.0 mm/hr 0.63 in16.0 mm
05:00 AM 60.8°F16.0°C 60.5°F15.8°C 99% 1.6 mph E2.6 kmh E 2.2 mph3.5 kmh 29.79 in1008.8 mb 0.07 in1.8 mm 0.14 in/hr3.6 mm/hr 0.70 in17.8 mm
05:30 AM 60.7°F15.9°C 60.4°F15.8°C 99% 0.4 mph NE0.6 kmh NE 1.6 mph2.6 kmh 29.80 in1009.1 mb 0.05 in1.3 mm 0.10 in/hr2.5 mm/hr 0.74 in18.8 mm
06:00 AM 61.0°F16.1°C 60.7°F15.9°C 99% 2.2 mph E3.5 kmh E 3.8 mph6.1 kmh 29.80 in1009.1 mb 0.02 in0.5 mm 0.04 in/hr1.0 mm/hr 0.77 in19.6 mm
06:30 AM 62.1°F16.7°C 61.8°F16.6°C 99% 3.6 mph E5.8 kmh E 6.9 mph11.1 kmh 29.81 in1009.5 mb 0.07 in1.8 mm 0.14 in/hr3.6 mm/hr 0.84 in21.3 mm
07:00 AM 62.2°F16.8°C 62.0°F16.7°C 99% 6.3 mph E10.1 kmh E 11.4 mph18.3 kmh 29.82 in1009.8 mb 0.09 in2.3 mm 0.18 in/hr4.6 mm/hr 0.92 in23.4 mm
07:30 AM 60.4°F15.8°C 60.2°F15.7°C 99% 7.6 mph SE12.2 kmh SE 10.7 mph17.2 kmh 29.82 in1009.8 mb 0.05 in1.3 mm 0.10 in/hr2.5 mm/hr 0.97 in24.6 mm
08:00 AM 60.3°F15.7°C 60.0°F15.6°C 99% 2.0 mph E3.2 kmh E 6.0 mph9.7 kmh 29.83 in1010.2 mb 0.04 in1.0 mm 0.08 in/hr2.0 mm/hr 1.00 in25.4 mm
08:30 AM 60.3°F15.7°C 60.0°F15.6°C 99% 1.6 mph 2.6 kmh 3.8 mph6.1 kmh 29.84 in1010.5 mb 0.05 in1.3 mm 0.10 in/hr2.5 mm/hr 1.05 in26.7 mm
09:00 AM 60.1°F15.6°C 59.8°F15.4°C 99% 4.5 mph E7.2 kmh E 7.6 mph12.2 kmh 29.84 in1010.5 mb 0.09 in2.3 mm 0.18 in/hr4.6 mm/hr 1.15 in29.2 mm
09:30 AM 60.1°F15.6°C 59.8°F15.4°C 99% 0.9 mph NNW1.4 kmh NNW 2.2 mph3.5 kmh 29.84 in1010.5 mb 0.05 in1.3 mm 0.10 in/hr2.5 mm/hr 1.19 in30.2 mm
10:00 AM 60.4°F15.8°C 60.1°F15.6°C 99% 3.4 mph W5.5 kmh W 4.5 mph7.2 kmh 29.84 in1010.5 mb 0.00 in0.0 mm 0.00 in/hr0.0 mm/hr 1.19 in30.2 mm
10:30 AM 60.6°F15.9°C 60.3°F15.7°C 99% 0.7 mph N1.1 kmh N 2.2 mph3.5 kmh 29.85 in1010.8 mb 0.02 in0.5 mm 0.04 in/hr1.0 mm/hr 1.22 in31.0 mm
11:00 AM 60.6°F15.9°C 60.3°F15.7°C 99% 0.8 mph NE1.3 kmh NE 3.1 mph5.0 kmh 29.86 in1011.2 mb 0.01 in0.3 mm 0.02 in/hr0.5 mm/hr 1.23 in31.2 mm
11:30 AM 60.8°F16.0°C 60.5°F15.8°C 99% 3.9 mph N6.3 kmh N 6.0 mph9.7 kmh 29.86 in1011.2 mb 0.01 in0.3 mm 0.02 in/hr0.5 mm/hr 1.24 in31.5 mm
12:00 PM 61.3°F16.3°C 60.8°F16.0°C 98% 3.9 mph N6.3 kmh N 6.0 mph9.7 kmh 29.87 in1011.5 mb 0.00 in0.0 mm 0.00 in/hr0.0 mm/hr 1.24 in31.5 mm
12:30 PM 62.1°F16.7°C 61.5°F16.4°C 98% Calm Calm 5.4 mph8.7 kmh 29.88 in1011.9 mb 0.00 in0.0 mm 0.00 in/hr0.0 mm/hr 1.24 in31.5 mm
01:00 PM 62.2°F16.8°C 61.1°F16.2°C 96% 1.6 mph W2.6 kmh W 3.8 mph6.1 kmh 29.88 in1011.9 mb 0.00 in0.0 mm 0.00 in/hr0.0 mm/hr 1.24 in31.5 mm
01:30 PM 62.5°F16.9°C 61.4°F16.3°C 96% 3.1 mph WSW5.0 kmh WSW 5.4 mph8.7 kmh 29.88 in1011.9 mb 0.00 in0.0 mm 0.00 in/hr0.0 mm/hr 1.24 in31.5 mm
02:00 PM 62.2°F16.8°C 61.0°F16.1°C 96% Calm Calm 1.6 mph2.6 kmh 29.88 in1011.9 mb 0.02 in0.5 mm 0.04 in/hr1.0 mm/hr 1.26 in32.0 mm
02:30 PM 62.1°F16.7°C 60.6°F15.9°C 95% 1.1 mph NE1.8 kmh NE 4.5 mph7.2 kmh 29.88 in1011.9 mb 0.01 in0.3 mm 0.02 in/hr0.5 mm/hr 1.28 in32.5 mm
03:00 PM 61.4°F16.3°C 58.7°F14.8°C 91% 1.7 mph SE2.7 kmh SE 3.8 mph6.1 kmh 29.89 in1012.2 mb 0.00 in0.0 mm 0.00 in/hr0.0 mm/hr 1.28 in32.5 mm
03:30 PM 61.0°F16.1°C 58.3°F14.6°C 91% 1.7 mph NNE2.7 kmh NNE 4.5 mph7.2 kmh 29.89 in1012.2 mb 0.00 in0.0 mm 0.00 in/hr0.0 mm/hr 1.28 in32.5 mm
04:00 PM 60.1°F15.6°C 57.4°F14.1°C 91% Calm Calm 0.7 mph1.1 kmh 29.89 in1012.2 mb 0.00 in0.0 mm 0.00 in/hr0.0 mm/hr 1.28 in32.5 mm
04:30 PM 59.8°F15.4°C 58.1°F14.5°C 94% 1.6 mph NNW2.6 kmh NNW 3.8 mph6.1 kmh 29.89 in1012.2 mb 0.01 in0.3 mm 0.02 in/hr0.5 mm/hr 1.29 in32.8 mm
05:00 PM 58.9°F14.9°C 57.8°F14.3°C 96% 1.6 mph NW2.6 kmh NW 3.8 mph6.1 kmh 29.88 in1011.9 mb 0.00 in0.0 mm 0.00 in/hr0.0 mm/hr 1.29 in32.8 mm
05:30 PM 58.8°F14.9°C 58.0°F14.4°C 97% 3.9 mph NNW6.3 kmh NNW 6.9 mph11.1 kmh 29.88 in1011.9 mb 0.00 in0.0 mm 0.00 in/hr0.0 mm/hr 1.29 in32.8 mm
06:00 PM 58.3°F14.6°C 57.4°F14.1°C 97% 3.8 mph 6.1 kmh 7.6 mph12.2 kmh 29.89 in1012.2 mb 0.01 in0.3 mm 0.02 in/hr0.5 mm/hr 1.30 in33.0 mm
06:30 PM 57.7°F14.3°C 56.9°F13.8°C 97% 0.4 mph W0.6 kmh W 1.6 mph2.6 kmh 29.90 in1012.5 mb 0.00 in0.0 mm 0.00 in/hr0.0 mm/hr 1.30 in33.0 mm
07:00 PM 57.0°F13.9°C 56.2°F13.4°C 97% 4.5 mph N7.2 kmh N 6.9 mph11.1 kmh 29.91 in1012.9 mb 0.02 in0.5 mm 0.04 in/hr1.0 mm/hr 1.32 in33.5 mm
07:30 PM 56.3°F13.5°C 55.5°F13.1°C 97% 2.3 mph NW3.7 kmh NW 5.4 mph8.7 kmh 29.92 in1013.2 mb 0.05 in1.3 mm 0.10 in/hr2.5 mm/hr 1.37 in34.8 mm
08:00 PM 55.7°F13.2°C 55.2°F12.9°C 98% 4.0 mph 6.4 kmh 6.9 mph11.1 kmh 29.93 in1013.5 mb 0.06 in1.5 mm 0.12 in/hr3.0 mm/hr 1.42 in36.1 mm
08:30 PM 55.2°F12.9°C 54.7°F12.6°C 98% 3.6 mph 5.8 kmh 5.4 mph8.7 kmh 29.93 in1013.5 mb 0.04 in1.0 mm 0.08 in/hr2.0 mm/hr 1.44 in36.6 mm
09:00 PM 55.0°F12.8°C 54.8°F12.7°C 99% 4.3 mph 6.9 kmh 6.0 mph9.7 kmh 29.94 in1013.9 mb 0.01 in0.3 mm 0.02 in/hr0.5 mm/hr 1.45 in36.8 mm
09:30 PM 54.9°F12.7°C 54.6°F12.6°C 99% 0.4 mph NW0.6 kmh NW 2.2 mph3.5 kmh 29.94 in1013.9 mb 0.04 in1.0 mm 0.08 in/hr2.0 mm/hr 1.49 in37.8 mm
10:00 PM 54.9°F12.7°C 54.6°F12.6°C 99% 2.2 mph N3.5 kmh N 4.5 mph7.2 kmh 29.94 in1013.9 mb 0.00 in0.0 mm 0.00 in/hr0.0 mm/hr 1.49 in37.8 mm
10:30 PM 54.7°F12.6°C 54.4°F12.4°C 99% 0.2 mph W0.3 kmh W 2.2 mph3.5 kmh 29.93 in1013.5 mb 0.02 in0.5 mm 0.04 in/hr1.0 mm/hr 1.51 in38.4 mm
11:00 PM 54.9°F12.7°C 54.6°F12.6°C 99% 0.3 mph N0.5 kmh N 2.2 mph3.5 kmh 29.93 in1013.5 mb 0.01 in0.3 mm 0.02 in/hr0.5 mm/hr 1.56 in39.6 mm
11:30 PM 54.9°F12.7°C 54.6°F12.6°C 99% Calm Calm 1.6 mph2.6 kmh 29.92 in1013.2 mb 0.00 in0.0 mm 0.00 in/hr0.0 mm/hr 1.56 in39.6 mm